New Preston Marble Dale, Connecticut
Current Conditions -  °F | °C
As of 12:50 PM on Saturday 25 Oct 2014 (Local Time) from KOXC Reporting Station
Clear Clear  
Wind Chill: 15°   Ceiling: Unl
Heat Index: 15°   Visibility: 10mi
Dew Point:   Wind: 12mph
Humidity: 51%   Direction: 300°WNW
Pressure: 29.75"   Gusts: NA
Location:  41.69°N, 73.35°W
Report Text: KOXC 251650Z 30010KT 10SM CLR 15/05 A2975
Loading
Personal Weather Stations






























Interactive Weather Map
Tropical Storm Tracking
New forecast layout! Learn more

10-Day Weather Forecast

Advertisements
Track Severe Weather on mobile